Time;durP1;ratioP1;P1;durP2;ratioP2;P2;SDS_P1;SDS_P2;PMS_P1;PMS_P2;Temp;Humidity;BMP_temperature;BMP_pressure;BME280_temperature;BME280_humidity;BME280_pressure;Samples;Min_cycle;Max_cycle;Signal;HPM_P1;HPM_P2
2023/08/21 00:01:16;;;;;;;;;;;;;;;26.10;37.53;99563.28;5074033;28;19921;-77
2023/08/21 00:03:42;;;;;;;;;;;;;;;26.05;37.63;99559.81;5073835;28;19912;-78
2023/08/21 00:06:07;;;;;;;;;;;;;;;26.03;38.02;99549.25;5073851;28;19915;-76
2023/08/21 00:08:32;;;;;;;;;;;;;;;26.06;38.20;99564.94;5074160;28;19912;-78
2023/08/21 00:10:57;;;;;;;;;;;;;;;26.11;37.81;99554.09;5073880;28;20450;-78
2023/08/21 00:13:23;;;;;;;;;;;;;;;26.11;37.37;99554.09;5074041;28;19951;-78
2023/08/21 00:15:48;;;;;;;;;;;;;;;26.07;38.15;99558.44;5074433;28;19912;-77
2023/08/21 00:18:14;;;;;;;;;;;;;;;26.06;38.13;99551.41;5055897;28;20415;-78
2023/08/21 00:20:41;;;;;;;;;;;;;;;26.04;38.19;99548.19;5073782;28;19912;-78
2023/08/21 00:23:06;;;;;;;;;;;;;;;26.03;37.95;99554.69;5073853;28;20009;-79
2023/08/21 00:25:32;;;;;;;;;;;;;;;25.94;38.02;99553.63;5073664;28;20355;-79
2023/08/21 00:27:57;;;;;;;;;;;;;;;25.92;38.42;99553.91;5073663;28;19927;-77
2023/08/21 00:30:22;;;;;;;;;;;;;;;25.91;38.17;99551.47;5072879;28;19951;-78
2023/08/21 00:32:47;;;;;;;;;;;;;;;25.89;38.71;99551.75;5073428;28;20306;-78
2023/08/21 00:35:12;;;;;;;;;;;;;;;25.88;38.17;99547.44;5073452;28;19919;-78
2023/08/21 00:37:38;;;;;;;;;;;;;;;25.83;38.47;99552.06;5073298;28;19912;-77
2023/08/21 00:40:03;;;;;;;;;;;;;;;25.80;38.45;99552.59;5065648;28;20297;-78
2023/08/21 00:42:28;;;;;;;;;;;;;;;25.74;38.40;99542.91;5087237;28;19920;-78
2023/08/21 00:44:54;;;;;;;;;;;;;;;25.69;38.83;99548.34;5055275;28;20289;-78
2023/08/21 00:47:19;;;;;;;;;;;;;;;25.66;39.00;99547.00;5073548;28;19912;-78
2023/08/21 00:49:45;;;;;;;;;;;;;;;25.73;38.18;99541.28;5073244;28;19915;-77
2023/08/21 00:52:14;;;;;;;;;;;;;;;25.72;38.70;99551.28;5055400;28;19942;-78
2023/08/21 00:54:40;;;;;;;;;;;;;;;25.72;38.88;99545.06;5073084;28;20001;-78
2023/08/21 00:57:05;;;;;;;;;;;;;;;25.72;38.49;99545.88;5073177;28;19952;-78
2023/08/21 00:59:30;;;;;;;;;;;;;;;25.68;38.87;99547.53;5072604;28;19913;-78
2023/08/21 01:01:56;;;;;;;;;;;;;;;25.68;38.66;99547.53;5072897;28;20312;-77
2023/08/21 01:04:21;;;;;;;;;;;;;;;25.73;38.80;99552.09;5073110;28;19919;-78
2023/08/21 01:06:48;;;;;;;;;;;;;;;25.77;38.39;99553.16;5054960;28;19984;-78
2023/08/21 01:09:23;;;;;;;;;;;;;;;25.84;38.37;99554.47;5073217;28;20380;-78
2023/08/21 01:12:01;;;;;;;;;;;;;;;25.93;37.88;99560.13;5055149;28;19920;-78
2023/08/21 01:14:26;;;;;;;;;;;;;;;26.03;38.70;99562.00;5073333;28;19913;-76
2023/08/21 01:16:53;;;;;;;;;;;;;;;26.10;37.96;99562.50;5073079;28;19966;-77
2023/08/21 01:19:40;;;;;;;;;;;;;;;26.19;38.07;99556.22;5072933;28;20393;-76
2023/08/21 01:22:05;;;;;;;;;;;;;;;26.26;37.67;99556.69;5072772;28;20352;-76
2023/08/21 01:24:30;;;;;;;;;;;;;;;26.33;37.49;99558.31;5072681;28;19919;-78
2023/08/21 01:26:55;;;;;;;;;;;;;;;26.36;37.78;99553.16;5073137;28;19905;-77
2023/08/21 01:29:21;;;;;;;;;;;;;;;26.44;37.70;99543.63;5073120;28;19969;-77
2023/08/21 01:31:50;;;;;;;;;;;;;;;26.48;38.14;99548.19;5072708;28;19913;-79
2023/08/21 01:34:16;;;;;;;;;;;;;;;26.50;37.80;99551.41;5072814;28;19912;-77
2023/08/21 01:36:42;;;;;;;;;;;;;;;26.58;37.58;99550.81;5072900;28;20404;-78
2023/08/21 01:39:08;;;;;;;;;;;;;;;26.64;37.64;99554.28;5054730;28;20004;-78
2023/08/21 01:41:33;;;;;;;;;;;;;;;26.68;38.48;99552.63;5071858;28;20474;-77
2023/08/21 01:43:58;;;;;;;;;;;;;;;26.75;38.13;99553.09;5072337;28;19912;-78
2023/08/21 01:46:24;;;;;;;;;;;;;;;26.81;38.76;99559.31;5072519;28;20340;-77
2023/08/21 01:48:49;;;;;;;;;;;;;;;26.87;37.95;99555.47;5072647;28;19991;-78
2023/08/21 01:51:14;;;;;;;;;;;;;;;26.93;38.28;99554.34;5072739;28;19909;-78
2023/08/21 01:53:39;;;;;;;;;;;;;;;27.01;38.59;99558.34;5072216;28;19917;-78
2023/08/21 01:56:05;;;;;;;;;;;;;;;27.05;37.82;99551.28;5072376;28;19917;-79
2023/08/21 01:58:30;;;;;;;;;;;;;;;27.08;38.22;99556.13;5072330;28;19912;-77
2023/08/21 02:00:55;;;;;;;;;;;;;;;27.10;37.86;99557.44;5072332;28;20069;-78
2023/08/21 02:03:20;;;;;;;;;;;;;;;27.09;38.78;99549.59;5072099;28;19948;-78
2023/08/21 02:05:46;;;;;;;;;;;;;;;27.11;38.22;99548.22;5072085;28;20311;-76
2023/08/21 02:08:13;;;;;;;;;;;;;;;27.13;38.09;99553.34;5071889;28;19913;-77
2023/08/21 02:10:46;;;;;;;;;;;;;;;27.17;38.12;99548.97;5071849;28;19912;-77
2023/08/21 02:13:11;;;;;;;;;;;;;;;27.18;39.34;99548.69;5072126;28;19983;-78
2023/08/21 02:15:36;;;;;;;;;;;;;;;27.21;38.08;99545.41;5072312;28;19913;-76
2023/08/21 02:18:01;;;;;;;;;;;;;;;27.20;38.48;99546.50;5072217;28;20492;-77
2023/08/21 02:20:27;;;;;;;;;;;;;;;27.23;38.35;99547.81;5072300;28;19913;-76
2023/08/21 02:22:52;;;;;;;;;;;;;;;27.29;38.16;99554.81;5072134;28;19913;-79
2023/08/21 02:25:17;;;;;;;;;;;;;;;27.28;38.21;99550.47;5071780;28;19935;-76
2023/08/21 02:27:43;;;;;;;;;;;;;;;27.27;38.38;99554.28;5053708;28;19912;-78
2023/08/21 02:30:08;;;;;;;;;;;;;;;27.29;38.08;99552.09;5071741;28;19962;-78
2023/08/21 02:32:34;;;;;;;;;;;;;;;27.27;37.83;99553.47;5053524;28;20032;-78
2023/08/21 02:34:59;;;;;;;;;;;;;;;27.27;38.08;99548.88;5071665;28;19912;-78
2023/08/21 02:37:25;;;;;;;;;;;;;;;27.28;37.96;99549.69;5071565;28;19919;-78
2023/08/21 02:39:50;;;;;;;;;;;;;;;27.32;37.82;99550.72;5071501;28;20332;-77
2023/08/21 02:42:15;;;;;;;;;;;;;;;27.33;37.65;99558.56;5071523;28;19916;-78
2023/08/21 02:44:40;;;;;;;;;;;;;;;27.36;38.04;99549.03;5053475;28;19912;-78
2023/08/21 02:47:06;;;;;;;;;;;;;;;27.39;37.54;99548.47;5053515;28;19909;-77
2023/08/21 02:49:31;;;;;;;;;;;;;;;27.40;37.85;99556.31;5071558;28;19912;-78
2023/08/21 02:51:56;;;;;;;;;;;;;;;27.41;37.89;99548.97;5071510;28;20706;-78
2023/08/21 02:54:21;;;;;;;;;;;;;;;27.40;37.38;99552.78;5073846;28;19913;-78
2023/08/21 02:56:48;;;;;;;;;;;;;;;27.41;37.35;99560.63;5075346;28;20007;-79
2023/08/21 02:59:13;;;;;;;;;;;;;;;27.45;37.14;99544.59;5057407;28;20355;-77
2023/08/21 03:01:38;;;;;;;;;;;;;;;27.45;37.32;99552.72;5075135;28;19920;-78
2023/08/21 03:04:03;;;;;;;;;;;;;;;27.40;37.56;99550.88;5057204;28;20047;-78
2023/08/21 03:06:29;;;;;;;;;;;;;;;27.35;37.60;99558.28;5075110;28;19912;-77
2023/08/21 03:08:54;;;;;;;;;;;;;;;27.33;37.75;99549.63;5075080;28;19912;-79
2023/08/21 03:11:19;;;;;;;;;;;;;;;27.30;37.82;99547.47;5057278;28;19919;-77
2023/08/21 03:13:44;;;;;;;;;;;;;;;27.26;37.58;99549.16;5057135;28;19983;-77
2023/08/21 03:16:10;;;;;;;;;;;;;;;27.23;37.87;99551.34;5057112;28;19966;-78
2023/08/21 03:18:53;;;;;;;;;;;;;;;27.27;37.51;99554.28;5074865;28;19919;-77
2023/08/21 03:21:18;;;;;;;;;;;;;;;27.14;37.96;99555.78;5074675;28;19913;-78
2023/08/21 03:23:44;;;;;;;;;;;;;;;27.13;38.25;99559.59;5075022;28;19908;-79
2023/08/21 03:26:09;;;;;;;;;;;;;;;27.13;37.66;99562.28;5076749;28;19911;-77
2023/08/21 03:28:34;;;;;;;;;;;;;;;27.11;37.86;99561.78;5075973;28;19912;-76
2023/08/21 03:31:00;;;;;;;;;;;;;;;27.10;38.46;99560.16;5075005;28;19912;-77
2023/08/21 03:33:25;;;;;;;;;;;;;;;27.09;37.69;99563.97;5074930;28;19917;-78
2023/08/21 03:35:53;;;;;;;;;;;;;;;27.07;38.48;99558.03;5075004;28;19964;-78
2023/08/21 03:38:18;;;;;;;;;;;;;;;27.08;37.85;99566.97;5075226;28;19912;-77
2023/08/21 03:40:43;;;;;;;;;;;;;;;27.03;37.93;99559.69;5075082;28;19919;-77
2023/08/21 03:43:09;;;;;;;;;;;;;;;27.01;38.77;99564.59;5057161;28;20443;-78
2023/08/21 03:45:34;;;;;;;;;;;;;;;27.02;38.78;99565.38;5074792;28;19919;-77
2023/08/21 03:47:59;;;;;;;;;;;;;;;27.03;38.42;99562.41;5075143;28;19913;-79
2023/08/21 03:50:24;;;;;;;;;;;;;;;27.09;38.43;99563.16;5075998;28;20359;-79
2023/08/21 03:52:50;;;;;;;;;;;;;;;27.14;38.23;99572.03;5074619;28;19916;-78
2023/08/21 03:55:15;;;;;;;;;;;;;;;27.12;37.89;99563.38;5074031;28;19912;-78
2023/08/21 03:57:40;;;;;;;;;;;;;;;27.12;38.30;99563.38;5074085;28;19966;-78
2023/08/21 04:00:07;;;;;;;;;;;;;;;27.13;38.44;99570.44;5074052;28;19920;-77
2023/08/21 04:02:33;;;;;;;;;;;;;;;27.15;38.59;99570.13;5074098;28;20389;-78
2023/08/21 04:05:00;;;;;;;;;;;;;;;27.17;38.28;99574.19;5072651;28;20329;-76
2023/08/21 04:07:25;;;;;;;;;;;;;;;27.15;38.71;99576.38;5074212;28;21270;-76
2023/08/21 04:09:50;;;;;;;;;;;;;;;27.21;38.35;99569.00;5074074;28;19999;-78
2023/08/21 04:12:15;;;;;;;;;;;;;;;27.28;38.19;99579.50;5073918;28;19923;-79
2023/08/21 04:14:41;;;;;;;;;;;;;;;27.31;37.89;99576.22;5074123;28;19919;-77
2023/08/21 04:17:06;;;;;;;;;;;;;;;27.32;38.08;99588.66;5073919;28;19913;-79
2023/08/21 04:19:33;;;;;;;;;;;;;;;27.30;37.98;99585.44;5073774;28;19912;-78
2023/08/21 04:21:59;;;;;;;;;;;;;;;27.33;38.12;99584.88;5073746;28;19967;-78
2023/08/21 04:24:24;;;;;;;;;;;;;;;27.36;38.60;99587.81;5073975;28;19951;-78
2023/08/21 04:26:49;;;;;;;;;;;;;;;27.38;38.03;99593.75;5073712;28;20385;-78
2023/08/21 04:29:14;;;;;;;;;;;;;;;27.40;38.22;99591.56;5055789;28;19935;-78
2023/08/21 04:31:40;;;;;;;;;;;;;;;27.45;37.93;99591.50;5073523;28;19920;-76
2023/08/21 04:34:05;;;;;;;;;;;;;;;27.47;38.11;99586.59;5073525;28;19917;-78
2023/08/21 04:36:31;;;;;;;;;;;;;;;27.50;38.22;99583.34;5073701;28;19913;-78
2023/08/21 04:38:56;;;;;;;;;;;;;;;27.51;37.74;99586.88;5073936;28;19920;-78
2023/08/21 04:41:21;;;;;;;;;;;;;;;27.52;37.74;99583.06;5055813;28;19912;-78
2023/08/21 04:43:46;;;;;;;;;;;;;;;27.55;38.07;99593.31;5073927;28;19919;-78
2023/08/21 04:46:12;;;;;;;;;;;;;;;27.60;37.84;99595.97;5073804;28;19967;-78
2023/08/21 04:48:37;;;;;;;;;;;;;;;27.54;38.23;99592.53;5073631;28;19919;-77
2023/08/21 04:51:02;;;;;;;;;;;;;;;27.58;37.92;99594.66;5073469;28;20300;-78
2023/08/21 04:53:27;;;;;;;;;;;;;;;27.61;37.67;99589.50;5066380;28;19924;-77
2023/08/21 04:55:53;;;;;;;;;;;;;;;27.65;38.10;99593.25;5056332;28;19923;-79
2023/08/21 04:58:18;;;;;;;;;;;;;;;27.68;37.90;99589.16;5053167;28;19913;-77
2023/08/21 05:00:46;;;;;;;;;;;;;;;27.69;37.85;99588.84;5053050;28;20011;-78
2023/08/21 05:03:12;;;;;;;;;;;;;;;27.73;37.53;99594.50;5053271;28;19924;-76
2023/08/21 05:05:37;;;;;;;;;;;;;;;27.77;37.56;99593.63;5035262;28;19912;-78
2023/08/21 05:08:03;;;;;;;;;;;;;;;27.79;38.04;99593.34;5034824;28;20302;-78
2023/08/21 05:10:28;;;;;;;;;;;;;;;27.83;37.93;99599.81;5034668;28;20231;-79
2023/08/21 05:12:53;;;;;;;;;;;;;;;27.86;37.61;99604.66;5052894;28;20095;-78
2023/08/21 05:15:19;;;;;;;;;;;;;;;27.90;37.39;99594.03;5052858;28;19913;-76
2023/08/21 05:17:44;;;;;;;;;;;;;;;27.94;37.28;99590.44;5034705;28;20443;-78
2023/08/21 05:20:10;;;;;;;;;;;;;;;27.99;37.35;99597.72;5052826;28;19913;-77
2023/08/21 05:22:36;;;;;;;;;;;;;;;28.04;36.82;99592.22;5052992;28;19962;-77
2023/08/21 05:25:01;;;;;;;;;;;;;;;28.08;37.64;99593.25;5034944;28;19913;-78
2023/08/21 05:27:26;;;;;;;;;;;;;;;28.13;37.53;99602.13;5052746;28;19913;-78
2023/08/21 05:29:51;;;;;;;;;;;;;;;28.15;37.01;99602.63;5034860;28;19990;-76
2023/08/21 05:32:17;;;;;;;;;;;;;;;28.19;36.79;99602.88;5052468;28;19924;-77
2023/08/21 05:34:42;;;;;;;;;;;;;;;28.22;36.98;99601.47;5034382;28;19963;-77
2023/08/21 05:37:07;;;;;;;;;;;;;;;28.23;37.20;99603.09;5052326;28;19913;-76
2023/08/21 05:39:33;;;;;;;;;;;;;;;28.26;36.74;99606.06;5056082;28;19924;-78
2023/08/21 05:41:59;;;;;;;;;;;;;;;28.27;37.12;99602.25;5053707;28;20003;-78
2023/08/21 05:44:24;;;;;;;;;;;;;;;28.31;37.10;99602.50;5052311;28;20008;-78
2023/08/21 05:46:49;;;;;;;;;;;;;;;28.35;37.09;99598.88;5052285;28;19912;-78
2023/08/21 05:49:15;;;;;;;;;;;;;;;28.35;36.71;99598.88;5052299;28;20000;-77
2023/08/21 05:51:40;;;;;;;;;;;;;;;28.40;36.45;99598.81;5055957;28;19920;-77
2023/08/21 05:54:05;;;;;;;;;;;;;;;28.45;37.01;99600.66;5053525;28;20312;-79
2023/08/21 05:56:30;;;;;;;;;;;;;;;28.52;36.80;99605.72;5068754;28;19912;-76
2023/08/21 05:58:56;;;;;;;;;;;;;;;28.58;37.22;99601.81;5038387;28;19917;-78
2023/08/21 06:01:21;;;;;;;;;;;;;;;28.64;37.22;99600.63;5030810;28;19968;-78
2023/08/21 06:03:46;;;;;;;;;;;;;;;28.71;36.06;99603.78;5032523;28;19913;-77
2023/08/21 06:06:11;;;;;;;;;;;;;;;28.77;36.33;99602.59;5031994;28;20307;-76
2023/08/21 06:08:37;;;;;;;;;;;;;;;28.82;36.55;99593.53;5032263;28;19913;-77
2023/08/21 06:11:02;;;;;;;;;;;;;;;28.87;36.32;99601.66;5032129;28;19967;-76
2023/08/21 06:13:27;;;;;;;;;;;;;;;28.94;35.84;99602.06;5032135;28;20004;-77
2023/08/21 06:15:53;;;;;;;;;;;;;;;28.99;36.36;99610.16;5032212;28;19913;-78
2023/08/21 06:18:18;;;;;;;;;;;;;;;29.04;35.63;99610.88;5032205;28;19942;-77
2023/08/21 06:20:44;;;;;;;;;;;;;;;29.09;35.46;99602.66;5032004;28;19919;-78
2023/08/21 06:23:10;;;;;;;;;;;;;;;29.14;35.30;99609.91;5031975;28;20378;-78
2023/08/21 06:25:35;;;;;;;;;;;;;;;29.19;35.26;99614.44;5031785;28;20014;-77
2023/08/21 06:28:00;;;;;;;;;;;;;;;29.21;35.44;99613.03;5029924;28;20103;-77
2023/08/21 06:30:26;;;;;;;;;;;;;;;29.26;35.08;99609.41;5031766;28;19971;-77
2023/08/21 06:32:52;;;;;;;;;;;;;;;29.33;35.19;99615.28;5031728;28;19921;-78
2023/08/21 06:35:17;;;;;;;;;;;;;;;29.38;35.21;99617.91;5034765;28;19919;-77
2023/08/21 06:37:42;;;;;;;;;;;;;;;29.46;34.79;99614.50;5037919;28;19974;-79
2023/08/21 06:40:08;;;;;;;;;;;;;;;29.49;35.11;99608.47;5031963;28;19913;-76
2023/08/21 06:42:33;;;;;;;;;;;;;;;29.54;34.85;99616.53;5030327;28;19913;-77
2023/08/21 06:44:58;;;;;;;;;;;;;;;29.62;34.72;99617.75;5032330;28;19909;-79
2023/08/21 06:47:24;;;;;;;;;;;;;;;29.67;34.60;99618.44;5031996;28;19913;-77
2023/08/21 06:49:49;;;;;;;;;;;;;;;29.74;34.27;99612.63;5031679;28;20356;-76
2023/08/21 06:52:14;;;;;;;;;;;;;;;29.82;33.88;99624.72;5031661;28;20003;-76
2023/08/21 06:54:39;;;;;;;;;;;;;;;29.87;33.69;99617.25;5032064;28;20378;-78
2023/08/21 06:57:05;;;;;;;;;;;;;;;29.93;33.66;99624.22;5031600;28;20008;-77
2023/08/21 06:59:30;;;;;;;;;;;;;;;30.00;33.88;99615.63;5033399;28;19951;-78
2023/08/21 07:01:55;;;;;;;;;;;;;;;30.08;33.59;99622.31;5035437;28;20355;-78
2023/08/21 07:04:20;;;;;;;;;;;;;;;30.14;33.64;99621.91;5052769;28;19917;-78
2023/08/21 07:06:46;;;;;;;;;;;;;;;30.18;33.29;99622.91;5051295;28;19920;-78
2023/08/21 07:09:11;;;;;;;;;;;;;;;30.21;32.61;99616.84;5051287;28;19916;-77
2023/08/21 07:11:36;;;;;;;;;;;;;;;30.27;33.27;99622.97;5033153;28;19912;-78
2023/08/21 07:14:02;;;;;;;;;;;;;;;30.34;33.25;99616.00;5051037;28;19917;-78
2023/08/21 07:16:27;;;;;;;;;;;;;;;30.38;32.94;99616.19;5051044;28;19913;-78
2023/08/21 07:18:52;;;;;;;;;;;;;;;30.45;32.84;99615.75;5050936;28;19913;-75
2023/08/21 07:21:17;;;;;;;;;;;;;;;30.53;32.51;99621.31;5050827;28;19960;-76
2023/08/21 07:23:43;;;;;;;;;;;;;;;30.59;32.99;99619.31;5050869;28;19917;-77
2023/08/21 07:26:08;;;;;;;;;;;;;;;30.64;32.34;99621.91;5050860;28;19956;-78
2023/08/21 07:28:33;;;;;;;;;;;;;;;30.71;32.06;99610.56;5032930;28;19913;-77
2023/08/21 07:30:59;;;;;;;;;;;;;;;30.76;32.01;99614.00;5050717;28;19913;-77
2023/08/21 07:33:25;;;;;;;;;;;;;;;30.84;32.26;99615.97;5050654;28;19921;-76
2023/08/21 07:35:57;;;;;;;;;;;;;;;30.90;32.30;99612.00;5050724;28;19913;-78
2023/08/21 07:38:22;;;;;;;;;;;;;;;30.97;32.02;99611.56;5050698;28;19912;-77
2023/08/21 07:40:48;;;;;;;;;;;;;;;31.06;32.46;99612.41;5034364;28;19919;-77
2023/08/21 07:43:13;;;;;;;;;;;;;;;31.13;32.38;99611.97;5036428;28;20369;-77
2023/08/21 07:45:38;;;;;;;;;;;;;;;31.18;32.33;99609.94;5036227;28;19936;-78
2023/08/21 07:48:04;;;;;;;;;;;;;;;31.22;32.37;99613.69;5054196;28;19947;-78
2023/08/21 07:50:30;;;;;;;;;;;;;;;31.32;32.05;99617.25;5054052;28;19909;-77
2023/08/21 07:52:55;;;;;;;;;;;;;;;31.39;32.30;99617.63;5035898;28;19917;-78
2023/08/21 07:55:20;;;;;;;;;;;;;;;31.43;31.94;99604.97;5053770;28;19919;-78
2023/08/21 07:57:46;;;;;;;;;;;;;;;31.52;32.14;99606.59;5053824;28;20397;-76
2023/08/21 08:00:11;;;;;;;;;;;;;;;31.59;31.70;99612.41;5035829;28;19921;-78
2023/08/21 08:02:37;;;;;;;;;;;;;;;31.63;31.67;99607.13;5054077;28;19919;-78
2023/08/21 08:05:02;;;;;;;;;;;;;;;31.73;31.93;99606.06;5053734;28;19919;-79
2023/08/21 08:07:28;;;;;;;;;;;;;;;31.77;31.01;99610.56;5036112;28;20368;-78
2023/08/21 08:09:53;;;;;;;;;;;;;;;31.86;31.22;99610.59;5035657;28;19913;-78
2023/08/21 08:12:19;;;;;;;;;;;;;;;31.97;31.45;99605.66;5053453;28;19916;-78
2023/08/21 08:14:44;;;;;;;;;;;;;;;32.08;30.66;99609.69;5070119;28;19917;-78
2023/08/21 08:17:09;;;;;;;;;;;;;;;32.16;30.44;99606.97;5055413;28;19942;-78
2023/08/21 08:19:35;;;;;;;;;;;;;;;32.25;29.76;99603.50;5073481;28;19912;-77
2023/08/21 08:22:00;;;;;;;;;;;;;;;32.37;29.18;99603.66;5068420;28;19928;-78
2023/08/21 08:24:25;;;;;;;;;;;;;;;32.49;28.83;99604.63;5053562;28;19913;-78
2023/08/21 08:26:50;;;;;;;;;;;;;;;32.61;29.69;99603.97;5035637;28;20444;-79
2023/08/21 08:29:16;;;;;;;;;;;;;;;32.72;28.68;99596.28;5035928;28;19977;-78
2023/08/21 08:31:41;;;;;;;;;;;;;;;32.81;29.62;99595.16;5053547;28;19942;-78
2023/08/21 08:34:06;;;;;;;;;;;;;;;32.93;29.78;99599.16;5053305;28;20278;-78
2023/08/21 08:36:32;;;;;;;;;;;;;;;33.02;29.49;99589.81;5035541;28;20377;-77
2023/08/21 08:38:57;;;;;;;;;;;;;;;33.14;28.88;99587.19;5066954;28;19916;-78
2023/08/21 08:41:25;;;;;;;;;;;;;;;33.25;29.46;99584.91;5073250;28;19920;-77
2023/08/21 08:43:50;;;;;;;;;;;;;;;33.35;27.73;99590.03;5072527;28;20431;-77
2023/08/21 08:46:16;;;;;;;;;;;;;;;33.48;28.60;99580.84;5071180;28;19920;-78
2023/08/21 08:48:41;;;;;;;;;;;;;;;33.60;27.60;99587.53;5051694;28;20301;-78
2023/08/21 08:51:07;;;;;;;;;;;;;;;33.76;27.49;99581.16;5052463;28;19913;-77
2023/08/21 08:53:33;;;;;;;;;;;;;;;33.90;28.00;99577.41;5034798;28;19947;-78
2023/08/21 08:55:58;;;;;;;;;;;;;;;34.07;26.43;99575.34;5052888;28;19916;-77
2023/08/21 08:58:24;;;;;;;;;;;;;;;34.21;25.20;99568.84;5052743;28;20282;-78
2023/08/21 09:00:49;;;;;;;;;;;;;;;34.39;24.83;99570.31;5040118;28;20389;-77
2023/08/21 09:03:15;;;;;;;;;;;;;;;34.50;27.17;99568.78;5040349;28;20004;-80
2023/08/21 09:05:41;;;;;;;;;;;;;;;34.62;25.05;99566.09;5051563;28;19920;-78
2023/08/21 09:08:06;;;;;;;;;;;;;;;34.80;24.88;99557.69;5051498;28;19919;-78
2023/08/21 09:10:31;;;;;;;;;;;;;;;34.92;24.19;99553.03;5052390;28;19948;-78
2023/08/21 09:13:00;;;;;;;;;;;;;;;35.06;22.44;99558.25;5052780;28;19949;-77
2023/08/21 09:15:31;;;;;;;;;;;;;;;35.20;24.06;99552.44;5052546;28;19942;-77
2023/08/21 09:17:57;;;;;;;;;;;;;;;35.44;24.53;99560.72;5052659;28;20404;-78
2023/08/21 09:20:22;;;;;;;;;;;;;;;35.66;23.80;99562.19;5052371;28;19909;-77
2023/08/21 09:22:55;;;;;;;;;;;;;;;35.87;22.30;99551.13;5052391;28;19913;-78
2023/08/21 09:25:20;;;;;;;;;;;;;;;36.02;22.31;99550.38;5052478;28;20381;-77
2023/08/21 09:27:45;;;;;;;;;;;;;;;36.19;21.90;99547.34;5047430;28;19924;-78
2023/08/21 09:30:15;;;;;;;;;;;;;;;36.36;21.94;99560.03;5035881;28;20447;-76
2023/08/21 09:32:52;;;;;;;;;;;;;;;36.44;21.90;99539.88;5052306;28;19924;-78
2023/08/21 09:35:17;;;;;;;;;;;;;;;36.62;22.60;99542.31;5050652;28;19913;-79
2023/08/21 09:37:46;;;;;;;;;;;;;;;36.74;24.37;99534.78;5052214;28;19905;-79
2023/08/21 09:40:11;;;;;;;;;;;;;;;36.87;20.99;99538.28;5047721;28;19921;-78
2023/08/21 09:42:38;;;;;;;;;;;;;;;36.98;20.18;99536.63;5032376;28;20297;-76
2023/08/21 09:45:04;;;;;;;;;;;;;;;37.13;20.82;99522.06;5031028;28;19996;-79
2023/08/21 09:47:30;;;;;;;;;;;;;;;37.24;20.82;99529.84;5032312;28;19951;-79
2023/08/21 09:49:55;;;;;;;;;;;;;;;37.32;21.63;99523.34;5032058;28;20363;-78
2023/08/21 09:52:21;;;;;;;;;;;;;;;37.47;20.66;99522.53;5032150;28;20425;-79
2023/08/21 09:54:47;;;;;;;;;;;;;;;37.60;18.84;99518.50;5042626;28;19971;-78
2023/08/21 09:57:12;;;;;;;;;;;;;;;37.67;18.66;99515.91;5071860;28;19916;-79
2023/08/21 09:59:40;;;;;;;;;;;;;;;37.75;18.49;99505.84;5074269;28;19909;-77
2023/08/21 10:02:06;;;;;;;;;;;;;;;37.78;21.58;99496.88;5091085;28;20441;-78
2023/08/21 10:04:34;;;;;;;;;;;;;;;37.91;19.28;99500.31;5071343;28;19932;-77
2023/08/21 10:07:00;;;;;;;;;;;;;;;38.01;20.85;99502.50;5062929;28;20413;-77
2023/08/21 10:09:27;;;;;;;;;;;;;;;38.12;20.42;99500.75;5063283;28;19969;-79
2023/08/21 10:11:53;;;;;;;;;;;;;;;38.20;18.96;99494.25;5073688;28;19999;-77
2023/08/21 10:14:19;;;;;;;;;;;;;;;38.42;19.40;99484.44;5073871;28;20427;-77
2023/08/21 10:16:44;;;;;;;;;;;;;;;38.63;18.75;99489.56;5091992;28;19981;-77
2023/08/21 10:19:14;;;;;;;;;;;;;;;38.70;17.55;99487.75;5090833;28;19913;-79
2023/08/21 10:21:39;;;;;;;;;;;;;;;38.90;18.53;99491.25;5071269;28;19963;-77
2023/08/21 10:24:05;;;;;;;;;;;;;;;39.02;17.73;99484.75;5071604;28;19955;-78
2023/08/21 10:26:30;;;;;;;;;;;;;;;38.92;20.29;99483.41;5071599;28;19920;-78
2023/08/21 10:29:01;;;;;;;;;;;;;;;38.64;18.70;99471.84;5053505;28;19955;-79
2023/08/21 10:31:28;;;;;;;;;;;;;;;38.72;20.25;99465.31;5071743;28;19959;-78
2023/08/21 10:33:54;;;;;;;;;;;;;;;38.82;18.29;99472.97;5071651;28;19928;-78
2023/08/21 10:36:38;;;;;;;;;;;;;;;38.90;17.70;99457.31;5081192;28;19917;-78
2023/08/21 10:39:04;;;;;;;;;;;;;;;39.19;18.74;99470.44;5053412;28;19913;-78
2023/08/21 10:41:29;;;;;;;;;;;;;;;39.36;19.04;99460.81;5071396;28;19962;-78
2023/08/21 10:43:55;;;;;;;;;;;;;;;39.56;18.34;99458.78;5053355;28;20003;-78
2023/08/21 10:46:20;;;;;;;;;;;;;;;39.76;18.52;99451.94;5071478;28;20361;-78
2023/08/21 10:48:45;;;;;;;;;;;;;;;39.87;19.33;99455.63;5072816;28;20400;-77
2023/08/21 10:51:12;;;;;;;;;;;;;;;39.87;19.16;99455.63;5091539;28;19920;-78
2023/08/21 10:53:39;;;;;;;;;;;;;;;39.85;17.94;99457.19;5091307;28;19960;-78
2023/08/21 10:56:05;;;;;;;;;;;;;;;40.15;17.84;99457.19;5091252;28;19912;-81
2023/08/21 10:58:35;;;;;;;;;;;;;;;40.19;16.56;99453.28;5091171;28;20377;-78
2023/08/21 11:01:00;;;;;;;;;;;;;;;40.21;18.81;99459.25;5091111;28;19927;-76
2023/08/21 11:03:25;;;;;;;;;;;;;;;40.16;17.81;99453.25;5089467;28;20003;-76
2023/08/21 11:06:04;;;;;;;;;;;;;;;39.99;17.58;99447.13;5053043;28;20025;-76
2023/08/21 11:08:29;;;;;;;;;;;;;;;39.49;17.10;99458.69;5072800;28;19918;-76
2023/08/21 11:10:54;;;;;;;;;;;;;;;39.51;17.25;99459.91;5075730;28;20003;-77
2023/08/21 11:13:23;;;;;;;;;;;;;;;39.79;16.71;99456.72;5070923;28;20355;-79
2023/08/21 11:15:48;;;;;;;;;;;;;;;39.97;16.70;99454.19;5056253;28;19935;-79
2023/08/21 11:18:13;;;;;;;;;;;;;;;40.29;16.87;99438.78;5074655;28;19912;-78
2023/08/21 11:20:39;;;;;;;;;;;;;;;40.53;16.77;99439.44;5074814;28;19916;-78
2023/08/21 11:23:06;;;;;;;;;;;;;;;40.75;17.30;99452.28;5074526;28;20447;-78
2023/08/21 11:25:32;;;;;;;;;;;;;;;40.79;16.03;99441.25;5082253;28;19919;-76
2023/08/21 11:27:57;;;;;;;;;;;;;;;40.63;15.45;99449.78;5094881;28;20442;-78
2023/08/21 11:30:25;;;;;;;;;;;;;;;40.09;15.54;99437.34;5076605;28;19912;-77
2023/08/21 11:33:06;;;;;;;;;;;;;;;39.47;16.94;99425.88;5092222;28;19951;-78
2023/08/21 11:35:31;;;;;;;;;;;;;;;38.93;16.57;99429.78;5094652;28;20339;-76
2023/08/21 11:37:57;;;;;;;;;;;;;;;38.50;16.53;99432.94;5090470;28;19920;-78
2023/08/21 11:40:22;;;;;;;;;;;;;;;38.46;17.99;99435.63;5075587;28;19913;-78
2023/08/21 11:42:51;;;;;;;;;;;;;;;38.44;17.02;99421.41;5074120;28;19935;-78
2023/08/21 11:45:20;;;;;;;;;;;;;;;38.78;16.84;99422.44;5056052;28;20309;-77
2023/08/21 11:47:45;;;;;;;;;;;;;;;39.08;17.75;99431.63;5074076;28;20337;-78
2023/08/21 11:50:12;;;;;;;;;;;;;;;39.44;16.59;99440.44;5073954;28;19908;-78
2023/08/21 11:52:38;;;;;;;;;;;;;;;39.71;15.37;99425.44;5057020;28;20389;-77
2023/08/21 11:55:07;;;;;;;;;;;;;;;40.13;15.94;99416.06;5074239;28;20320;-78
2023/08/21 11:57:32;;;;;;;;;;;;;;;40.47;15.37;99414.06;5056107;28;19917;-78
2023/08/21 11:59:57;;;;;;;;;;;;;;;40.62;14.81;99423.28;5087501;28;19943;-78
2023/08/21 12:02:22;;;;;;;;;;;;;;;40.52;15.58;99429.53;5093439;28;19962;-78
2023/08/21 12:05:00;;;;;;;;;;;;;;;40.64;14.86;99421.72;5094434;28;19912;-78
2023/08/21 12:07:25;;;;;;;;;;;;;;;40.77;15.69;99413.94;5094278;28;19927;-76
2023/08/21 12:09:51;;;;;;;;;;;;;;;40.79;14.18;99422.66;5094087;28;19920;-78
2023/08/21 12:12:16;;;;;;;;;;;;;;;40.75;14.83;99410.75;5093778;28;19970;-77
2023/08/21 12:14:41;;;;;;;;;;;;;;;40.83;14.76;99414.41;5085054;28;19968;-76
2023/08/21 12:17:07;;;;;;;;;;;;;;;40.81;15.32;99420.31;5063754;28;19923;-77
2023/08/21 12:19:32;;;;;;;;;;;;;;;40.75;15.33;99419.06;5073877;28;19913;-78
2023/08/21 12:21:58;;;;;;;;;;;;;;;40.74;14.44;99408.38;5055633;28;19913;-77
2023/08/21 12:24:23;;;;;;;;;;;;;;;40.79;15.54;99399.72;5073706;28;20451;-77
2023/08/21 12:26:48;;;;;;;;;;;;;;;41.03;14.68;99399.13;5072771;28;19912;-78
2023/08/21 12:29:14;;;;;;;;;;;;;;;41.05;14.72;99398.75;5056876;28;19920;-76
2023/08/21 12:31:39;;;;;;;;;;;;;;;41.10;14.89;99390.88;5066421;28;19922;-78
2023/08/21 12:34:04;;;;;;;;;;;;;;;41.24;15.47;99396.53;5092273;28;19916;-78
2023/08/21 12:36:30;;;;;;;;;;;;;;;41.27;14.79;99394.94;5075281;28;19981;-79
2023/08/21 12:38:55;;;;;;;;;;;;;;;41.33;13.69;99389.84;5076167;28;19961;-80
2023/08/21 12:41:20;;;;;;;;;;;;;;;41.32;14.23;99400.13;5094144;28;19912;-77